createdAt,value
2019-05-29T14:45:15.156Z,66.90
2019-05-29T14:47:44.263Z,67.60
2019-05-29T14:50:13.594Z,67.40
2019-05-29T14:52:42.610Z,67.20
2019-05-29T14:55:16.077Z,66.80
2019-05-29T14:57:42.324Z,66.50
2019-05-29T15:00:21.047Z,66.00
2019-05-29T15:02:41.988Z,65.40
2019-05-29T15:05:12.125Z,64.80
2019-05-29T15:07:42.150Z,64.20
2019-05-29T15:10:23.983Z,63.40
2019-05-29T15:12:42.869Z,63.10
2019-05-29T15:15:14.250Z,63.30
2019-05-29T15:17:43.636Z,63.30
2019-05-29T15:20:14.458Z,63.10
2019-05-29T15:22:43.193Z,63.00
2019-05-29T15:25:21.065Z,63.00
2019-05-29T15:27:42.991Z,62.60
2019-05-29T15:30:16.215Z,62.50
2019-05-29T15:32:42.443Z,62.40
2019-05-29T15:35:15.803Z,36.80
2019-05-29T15:37:42.585Z,35.60
2019-05-29T15:40:12.912Z,37.90
2019-05-29T15:42:42.322Z,39.30
2019-05-29T15:45:11.867Z,39.90
2019-05-29T15:47:41.312Z,39.90
2019-05-29T15:50:11.383Z,39.80
2019-05-29T15:52:40.973Z,39.30
2019-05-29T15:55:27.852Z,38.90
2019-05-29T15:57:40.972Z,39.30
2019-05-29T16:00:11.200Z,39.90
2019-05-29T16:02:47.967Z,40.20
2019-05-29T16:05:17.392Z,40.10
2019-05-29T16:07:47.008Z,40.00
2019-05-29T16:10:21.004Z,39.50
2019-05-29T16:12:50.421Z,39.40
2019-05-29T16:15:19.799Z,38.90
2019-05-29T16:17:48.914Z,38.60
2019-05-29T16:20:18.718Z,38.10
2019-05-29T16:22:49.435Z,38.00
2019-05-29T16:25:19.233Z,38.00
2019-05-29T16:27:48.682Z,37.70
2019-05-29T16:30:19.903Z,38.00
2019-05-29T16:32:50.159Z,37.70
2019-05-29T16:35:19.787Z,37.30
2019-05-29T16:37:50.820Z,37.40
2019-05-29T16:40:23.188Z,37.60
2019-05-29T16:42:52.787Z,37.50
2019-05-29T16:45:22.419Z,37.30
2019-05-29T16:47:54.628Z,37.10
2019-05-29T16:50:24.490Z,37.60
2019-05-29T16:52:53.994Z,37.70
2019-05-29T16:55:23.806Z,37.80
2019-05-29T16:57:53.418Z,38.00
2019-05-29T17:00:23.477Z,38.10
2019-05-29T17:02:52.839Z,38.60
2019-05-29T17:05:22.340Z,39.00
2019-05-29T17:07:51.633Z,38.90
2019-05-29T17:10:22.383Z,38.80
2019-05-29T17:12:52.225Z,39.20
2019-05-29T17:15:22.834Z,39.80
2019-05-29T17:17:52.751Z,40.30
2019-05-29T17:20:22.724Z,40.60
2019-05-29T17:22:53.702Z,41.00
2019-05-29T17:25:27.967Z,41.20
2019-05-29T17:27:53.740Z,41.30
2019-05-29T17:30:23.228Z,41.20
2019-05-29T17:32:52.722Z,41.20
2019-05-29T17:35:23.185Z,41.20
2019-05-29T17:37:54.424Z,41.30
2019-05-29T17:40:23.934Z,40.40
2019-05-29T17:42:53.119Z,40.70
2019-05-29T17:45:25.400Z,40.90
2019-05-29T17:47:55.624Z,40.80
2019-05-29T17:50:26.661Z,41.00
2019-05-29T17:52:55.852Z,41.30
2019-05-29T17:55:26.515Z,40.40
2019-05-29T17:57:55.979Z,39.60
2019-05-29T18:00:26.679Z,39.10
2019-05-29T18:02:56.138Z,38.70
2019-05-29T18:05:26.595Z,38.30
2019-05-29T18:07:56.011Z,38.60
2019-05-29T18:10:25.745Z,39.30
2019-05-29T18:12:58.783Z,39.80
2019-05-29T18:15:28.393Z,40.00
2019-05-29T18:17:57.783Z,40.70
2019-05-29T18:20:30.769Z,41.10
2019-05-29T18:22:59.980Z,41.50
2019-05-29T18:25:29.574Z,41.50
2019-05-29T18:27:58.876Z,41.60
2019-05-29T18:30:28.825Z,41.40
2019-05-29T18:33:01.373Z,41.10
2019-05-29T18:35:37.896Z,40.90
2019-05-29T18:38:07.264Z,40.60
2019-05-29T18:40:36.461Z,40.30
2019-05-29T18:43:08.088Z,40.10
2019-05-29T18:45:37.311Z,40.00
2019-05-29T18:48:06.222Z,39.70
2019-05-29T18:50:35.904Z,39.80
2019-05-29T18:53:05.008Z,39.50
2019-05-29T18:55:34.621Z,39.50
2019-05-29T18:58:08.115Z,39.40
2019-05-29T19:00:37.594Z,39.40
2019-05-29T19:03:12.955Z,39.20
2019-05-29T19:05:42.261Z,39.20
2019-05-29T19:08:11.484Z,39.00
2019-05-29T19:10:40.563Z,39.00
2019-05-29T19:13:10.282Z,38.80
2019-05-29T19:15:39.594Z,38.90
2019-05-29T19:18:09.196Z,39.30
2019-05-29T19:20:38.711Z,39.50
2019-05-29T19:23:07.791Z,39.60
2019-05-29T19:25:38.331Z,39.80
2019-05-29T19:28:08.821Z,40.00
2019-05-29T19:30:38.260Z,40.10
2019-05-29T19:33:10.629Z,40.30
2019-05-29T19:35:40.111Z,40.50
2019-05-29T19:38:09.231Z,40.40
2019-05-29T19:40:39.759Z,40.30
2019-05-29T19:43:08.965Z,40.30
2019-05-29T19:45:38.248Z,39.90
2019-05-29T19:48:07.560Z,39.70
2019-05-29T19:50:38.229Z,39.50
2019-05-29T19:53:07.712Z,39.30
2019-05-29T19:55:38.352Z,39.30
2019-05-29T19:58:10.806Z,39.20
2019-05-29T20:00:40.116Z,38.90
2019-05-29T20:03:09.216Z,38.80
2019-05-29T20:05:44.691Z,38.90
2019-05-29T20:08:14.064Z,38.90
2019-05-29T20:10:43.362Z,39.10
2019-05-29T20:13:12.976Z,39.30
2019-05-29T20:15:42.141Z,39.40
2019-05-29T20:18:14.554Z,39.40
2019-05-29T20:20:44.351Z,39.50
2019-05-29T20:23:13.655Z,39.70
2019-05-29T20:25:43.371Z,39.70
2019-05-29T20:28:12.935Z,39.70
2019-05-29T20:30:42.849Z,39.70
2019-05-29T20:33:12.198Z,39.80
2019-05-29T20:35:41.359Z,39.90
2019-05-29T20:38:10.826Z,40.00
2019-05-29T20:40:41.313Z,39.90
2019-05-29T20:43:10.812Z,40.00
2019-05-29T20:45:41.682Z,40.00
2019-05-29T20:48:11.396Z,40.00
2019-05-29T20:50:40.698Z,40.00
2019-05-29T20:53:16.747Z,40.10
2019-05-29T20:55:53.735Z,40.20
2019-05-29T20:58:24.916Z,40.10
2019-05-29T21:00:53.657Z,40.30
2019-05-29T21:03:22.847Z,40.30
2019-05-29T21:05:52.357Z,40.30
2019-05-29T21:08:21.768Z,40.40
2019-05-29T21:10:50.868Z,40.40
2019-05-29T21:13:23.345Z,40.40
2019-05-29T21:15:52.942Z,40.40
2019-05-29T21:18:27.894Z,40.50
2019-05-29T21:20:57.307Z,40.50
2019-05-29T21:23:26.708Z,40.40
2019-05-29T21:25:56.303Z,40.30
2019-05-29T21:28:39.278Z,40.30
2019-05-29T21:30:56.339Z,40.20
2019-05-29T21:33:25.433Z,40.20
2019-05-29T21:35:55.355Z,40.50
2019-05-29T21:38:24.947Z,40.60
2019-05-29T21:40:54.461Z,41.60
2019-05-29T21:43:23.986Z,42.00
2019-05-29T21:45:53.567Z,42.80
2019-05-29T21:48:22.996Z,43.20
2019-05-29T21:50:52.300Z,43.80
2019-05-29T21:53:21.793Z,44.50
2019-05-29T21:55:51.398Z,45.10
2019-05-29T21:58:20.594Z,45.20
2019-05-29T22:00:49.876Z,45.90
2019-05-29T22:03:20.242Z,67.60
2019-05-29T22:05:49.932Z,67.50
2019-05-29T22:08:19.129Z,67.70
2019-05-29T22:10:48.750Z,67.20
2019-05-29T22:13:18.457Z,66.80
2019-05-29T22:15:47.969Z,66.40
2019-05-29T22:18:17.714Z,66.30
2019-05-29T22:20:46.873Z,66.00
2019-05-29T22:23:16.281Z,65.80
2019-05-29T22:25:45.974Z,65.90
2019-05-29T22:28:15.485Z,65.80
2019-05-29T22:30:45.110Z,65.50
